Time;durP1;ratioP1;P1;durP2;ratioP2;P2;SDS_P1;SDS_P2;PMS_P1;PMS_P2;Temp;Humidity;BMP_temperature;BMP_pressure;BME280_temperature;BME280_humidity;BME280_pressure;Samples;Min_cycle;Max_cycle;Signal;HPM_P1;HPM_P2
2022/12/03 00:01:48;;;;;;;;;;;;;;;20.89;38.28;95618.53;10443625;28;2410;-52
2022/12/03 00:06:49;;;;;;;;;;;;;;;20.88;38.59;95622.22;10441149;28;2448;-53
2022/12/03 00:11:49;;;;;;;;;;;;;;;20.88;38.20;95622.22;10443251;28;2907;-52
2022/12/03 00:16:49;;;;;;;;;;;;;;;20.86;37.83;95624.34;10443578;28;2930;-52
2022/12/03 00:21:50;;;;;;;;;;;;;;;20.82;39.16;95618.06;10439352;28;2971;-53
2022/12/03 00:26:50;;;;;;;;;;;;;;;20.81;38.46;95619.13;10442596;28;2948;-51
2022/12/03 00:31:50;;;;;;;;;;;;;;;20.80;39.31;95622.84;10439096;28;2926;-52
2022/12/03 00:36:51;;;;;;;;;;;;;;;20.79;38.01;95623.13;10442027;28;3042;-54
2022/12/03 00:41:51;;;;;;;;;;;;;;;20.77;38.58;95626.00;10431288;28;2953;-53
2022/12/03 00:46:52;;;;;;;;;;;;;;;20.72;38.80;95612.91;10446890;28;2869;-51
2022/12/03 00:51:52;;;;;;;;;;;;;;;20.70;38.56;95601.88;10445310;28;2928;-50
2022/12/03 00:56:52;;;;;;;;;;;;;;;20.67;39.18;95617.44;10433982;28;2885;-53
2022/12/03 01:01:53;;;;;;;;;;;;;;;20.64;39.51;95617.97;10436539;28;3021;-52
2022/12/03 01:06:53;;;;;;;;;;;;;;;20.62;39.18;95623.53;10439769;28;2864;-53
2022/12/03 01:11:54;;;;;;;;;;;;;;;20.58;39.36;95625.16;10437541;28;3078;-53
2022/12/03 01:16:54;;;;;;;;;;;;;;;20.55;39.27;95625.69;10437759;28;2858;-53
2022/12/03 01:21:55;;;;;;;;;;;;;;;20.52;39.42;95625.47;10453417;28;2417;-50
2022/12/03 01:26:56;;;;;;;;;;;;;;;20.49;39.36;95616.25;10441187;28;2552;-51
2022/12/03 01:37:15;;;;;;;;;;;;;;;20.44;39.22;95616.31;10440380;28;2917;-54
2022/12/03 01:42:17;;;;;;;;;;;;;;;20.40;39.39;95615.28;10441031;28;2449;-51
2022/12/03 01:47:17;;;;;;;;;;;;;;;20.37;39.31;95628.19;10433644;28;2846;-52
2022/12/03 01:52:19;;;;;;;;;;;;;;;20.34;39.40;95626.91;10441518;28;2937;-53
2022/12/03 01:57:21;;;;;;;;;;;;;;;20.33;39.11;95630.59;10410487;28;3157;-51
2022/12/03 02:02:30;;;;;;;;;;;;;;;20.31;39.33;95629.31;10420456;28;2905;-51
2022/12/03 02:07:31;;;;;;;;;;;;;;;20.27;39.18;95623.81;10449044;28;2879;-51
2022/12/03 02:12:50;;;;;;;;;;;;;;;20.26;39.04;95616.97;10433967;28;2921;-52
2022/12/03 02:17:51;;;;;;;;;;;;;;;20.22;39.33;95616.72;10433114;28;3078;-52
2022/12/03 02:23:03;;;;;;;;;;;;;;;20.20;39.36;95631.22;10447492;28;2902;-50
2022/12/03 02:28:03;;;;;;;;;;;;;;;20.17;39.09;95640.41;10436851;28;3068;-53
2022/12/03 02:33:04;;;;;;;;;;;;;;;20.16;38.78;95630.94;10431148;28;2878;-51
2022/12/03 02:38:10;;;;;;;;;;;;;;;20.14;39.11;95627.00;10427060;28;2465;-51
2022/12/03 02:43:10;;;;;;;;;;;;;;;20.11;39.06;95633.59;10439756;28;2923;-48
2022/12/03 02:48:12;;;;;;;;;;;;;;;20.09;38.88;95622.56;10439487;28;2867;-49
2022/12/03 02:53:13;;;;;;;;;;;;;;;20.08;38.74;95633.38;10444206;28;2893;-54
2022/12/03 02:58:14;;;;;;;;;;;;;;;20.06;38.89;95627.59;10427436;28;3315;-52
2022/12/03 03:03:15;;;;;;;;;;;;;;;20.03;38.69;95626.28;10448136;28;2920;-53
2022/12/03 03:08:15;;;;;;;;;;;;;;;20.01;38.52;95617.13;10459933;28;2901;-51
2022/12/03 03:13:17;;;;;;;;;;;;;;;20.00;38.65;95628.69;10445416;28;2871;-50
2022/12/03 03:18:17;;;;;;;;;;;;;;;19.97;38.62;95623.97;10442292;28;2907;-53
2022/12/03 03:23:18;;;;;;;;;;;;;;;19.95;38.68;95620.81;10422732;28;2923;-49
2022/12/03 03:28:19;;;;;;;;;;;;;;;19.92;38.63;95616.91;10439800;28;3005;-49
2022/12/03 03:33:19;;;;;;;;;;;;;;;19.91;38.52;95610.06;10436301;28;2894;-49
2022/12/03 03:38:19;;;;;;;;;;;;;;;19.89;38.45;95604.28;10442585;28;2881;-52
2022/12/03 03:43:20;;;;;;;;;;;;;;;19.88;38.54;95607.19;10441165;28;2846;-50
2022/12/03 03:48:20;;;;;;;;;;;;;;;19.86;38.40;95609.31;10425392;28;2839;-50
2022/12/03 03:53:21;;;;;;;;;;;;;;;19.84;38.48;95600.91;10430851;28;2812;-51
2022/12/03 03:58:21;;;;;;;;;;;;;;;19.82;38.34;95610.91;10430808;28;2397;-52
2022/12/03 04:03:36;;;;;;;;;;;;;;;19.80;38.36;95598.03;10421568;28;2918;-52
2022/12/03 04:08:36;;;;;;;;;;;;;;;19.77;38.34;95601.19;10441573;28;2860;-55
2022/12/03 04:13:37;;;;;;;;;;;;;;;19.76;38.10;95607.53;10440667;28;3015;-53
2022/12/03 04:18:43;;;;;;;;;;;;;;;19.74;38.28;95600.97;10434243;28;2433;-52
2022/12/03 04:23:43;;;;;;;;;;;;;;;19.72;38.20;95597.81;10423266;28;2492;-47
2022/12/03 04:28:50;;;;;;;;;;;;;;;19.71;38.12;95598.84;10427137;28;3007;-53
2022/12/03 04:39:10;;;;;;;;;;;;;;;19.66;38.12;95612.81;10436120;28;2854;-51
2022/12/03 04:49:29;;;;;;;;;;;;;;;19.64;38.01;95624.69;10440939;28;2927;-51
2022/12/03 04:54:29;;;;;;;;;;;;;;;19.61;38.08;95627.84;10440932;28;2883;-51
2022/12/03 04:59:29;;;;;;;;;;;;;;;19.60;37.75;95618.38;10434679;28;2388;-51
2022/12/03 05:04:30;;;;;;;;;;;;;;;19.63;37.47;95623.09;10434529;28;3009;-52
2022/12/03 05:09:30;;;;;;;;;;;;;;;19.68;37.30;95620.44;10439334;28;2951;-52
2022/12/03 05:14:30;;;;;;;;;;;;;;;19.76;37.39;95617.25;10438258;28;3215;-48
2022/12/03 05:24:50;;;;;;;;;;;;;;;19.94;36.36;95619.25;10437321;28;2894;-53
2022/12/03 05:29:50;;;;;;;;;;;;;;;20.01;35.28;95625.00;10451397;28;2943;-51
2022/12/03 05:34:51;;;;;;;;;;;;;;;20.01;34.52;95627.63;10453832;28;2910;-50
2022/12/03 05:39:51;;;;;;;;;;;;;;;20.08;34.96;95633.38;10445419;28;2891;-53
2022/12/03 05:44:51;;;;;;;;;;;;;;;20.10;34.10;95629.41;10449240;28;2914;-51
2022/12/03 05:49:52;;;;;;;;;;;;;;;20.15;33.43;95623.34;10437953;28;2955;-52
2022/12/03 05:54:52;;;;;;;;;;;;;;;20.20;33.48;95629.38;10439094;28;3317;-51
2022/12/03 05:59:52;;;;;;;;;;;;;;;20.23;33.32;95630.69;10448319;28;2948;-52
2022/12/03 06:04:53;;;;;;;;;;;;;;;20.27;33.04;95639.59;10436401;28;2511;-47
2022/12/03 06:09:53;;;;;;;;;;;;;;;20.29;32.73;95619.06;10433673;28;2652;-50
2022/12/03 06:14:54;;;;;;;;;;;;;;;20.33;33.11;95621.91;10433007;28;2394;-50
2022/12/03 06:19:54;;;;;;;;;;;;;;;20.35;32.68;95625.06;10452386;28;3036;-54
2022/12/03 06:24:54;;;;;;;;;;;;;;;20.39;32.74;95621.59;10429308;28;2880;-51
2022/12/03 06:29:55;;;;;;;;;;;;;;;20.40;32.29;95617.13;10433261;28;2903;-49
2022/12/03 06:34:55;;;;;;;;;;;;;;;20.44;32.59;95616.31;10440299;28;2846;-49
2022/12/03 06:39:55;;;;;;;;;;;;;;;20.48;32.58;95608.66;10447994;28;2893;-52
2022/12/03 06:44:55;;;;;;;;;;;;;;;20.49;32.40;95624.16;10451352;28;2886;-51
2022/12/03 06:50:06;;;;;;;;;;;;;;;20.51;32.27;95618.59;10446326;28;2853;-49
2022/12/03 06:55:07;;;;;;;;;;;;;;;20.53;32.83;95604.09;10444512;28;2966;-54
2022/12/03 07:00:07;;;;;;;;;;;;;;;20.55;32.52;95607.25;10440858;28;3144;-51
2022/12/03 07:05:16;;;;;;;;;;;;;;;20.59;32.77;95612.75;10440025;28;2953;-52
2022/12/03 07:10:17;;;;;;;;;;;;;;;20.58;33.03;95619.88;10433554;28;2864;-48
2022/12/03 07:15:17;;;;;;;;;;;;;;;20.60;32.50;95606.44;10445946;28;2877;-49
2022/12/03 07:20:24;;;;;;;;;;;;;;;20.59;32.47;95608.28;10450578;28;2947;-48
2022/12/03 07:25:24;;;;;;;;;;;;;;;20.61;32.10;95618.53;10452737;28;2950;-50
2022/12/03 07:30:26;;;;;;;;;;;;;;;20.62;32.13;95620.91;10449271;28;2795;-49
2022/12/03 07:35:26;;;;;;;;;;;;;;;20.61;32.06;95611.41;10437881;28;3167;-51
2022/12/03 07:40:27;;;;;;;;;;;;;;;20.63;31.42;95613.78;10435041;28;3171;-50
2022/12/03 07:45:27;;;;;;;;;;;;;;;20.65;31.40;95603.75;10439366;28;3142;-51
2022/12/03 07:50:27;;;;;;;;;;;;;;;20.67;31.75;95612.94;10435554;28;3396;-52
2022/12/03 07:55:27;;;;;;;;;;;;;;;20.70;31.64;95627.41;10431956;28;3361;-49
2022/12/03 08:00:28;;;;;;;;;;;;;;;20.68;31.62;95614.53;10435127;28;3154;-53
2022/12/03 08:05:28;;;;;;;;;;;;;;;20.71;31.98;95618.47;10444062;28;3195;-52
2022/12/03 08:10:28;;;;;;;;;;;;;;;20.74;33.30;95616.03;10434294;28;3166;-52
2022/12/03 08:15:29;;;;;;;;;;;;;;;20.72;32.65;95605.00;10438069;28;3121;-51
2022/12/03 08:20:32;;;;;;;;;;;;;;;20.72;33.18;95604.22;10439375;28;3143;-52
2022/12/03 08:25:32;;;;;;;;;;;;;;;20.68;33.47;95603.97;10440099;28;3205;-51
2022/12/03 08:30:33;;;;;;;;;;;;;;;20.68;33.80;95598.72;10429512;28;3189;-54
2022/12/03 08:35:33;;;;;;;;;;;;;;;20.70;34.22;95614.25;10432129;28;3213;-51
2022/12/03 08:40:34;;;;;;;;;;;;;;;20.66;33.68;95606.13;10435734;28;3173;-48
2022/12/03 08:45:38;;;;;;;;;;;;;;;20.65;34.29;95620.34;10436705;28;3130;-54
2022/12/03 08:50:39;;;;;;;;;;;;;;;20.63;34.30;95614.56;10439613;28;3127;-51
2022/12/03 08:55:41;;;;;;;;;;;;;;;20.64;34.54;95621.41;10439555;28;3139;-54
2022/12/03 09:00:41;;;;;;;;;;;;;;;20.64;34.71;95617.97;10425574;28;2637;-53
2022/12/03 09:05:42;;;;;;;;;;;;;;;20.64;34.76;95613.50;10434354;28;3491;-55
2022/12/03 09:10:42;;;;;;;;;;;;;;;20.60;34.70;95611.69;10435400;28;3285;-57
2022/12/03 09:15:42;;;;;;;;;;;;;;;20.60;34.70;95607.22;10431784;28;2823;-54
2022/12/03 09:20:43;;;;;;;;;;;;;;;20.57;35.07;95609.59;10437679;28;3162;-55
2022/12/03 09:25:49;;;;;;;;;;;;;;;20.54;35.20;95618.06;10439116;28;3134;-54
2022/12/03 09:30:49;;;;;;;;;;;;;;;20.52;35.09;95607.81;10436837;28;3238;-55
2022/12/03 09:35:49;;;;;;;;;;;;;;;20.49;35.05;95613.63;10430494;28;2735;-55
2022/12/03 09:40:49;;;;;;;;;;;;;;;20.47;34.86;95607.84;10434895;28;3162;-52
2022/12/03 09:45:50;;;;;;;;;;;;;;;20.44;35.24;95602.34;10427694;28;3139;-53
2022/12/03 09:50:50;;;;;;;;;;;;;;;20.40;35.13;95601.34;10431331;28;3313;-53
2022/12/03 09:55:51;;;;;;;;;;;;;;;20.39;34.73;95594.50;10433027;28;3237;-51
2022/12/03 10:00:51;;;;;;;;;;;;;;;20.34;34.36;95579.50;10428964;28;3151;-54
2022/12/03 10:05:51;;;;;;;;;;;;;;;20.34;34.41;95574.25;10453834;28;2773;-53
2022/12/03 10:10:53;;;;;;;;;;;;;;;20.30;34.12;95567.19;10439571;28;3135;-52
2022/12/03 10:15:53;;;;;;;;;;;;;;;20.22;35.05;95564.09;10425624;28;3131;-55
2022/12/03 10:20:55;;;;;;;;;;;;;;;20.20;34.82;95571.47;10453422;28;3210;-53
2022/12/03 10:25:56;;;;;;;;;;;;;;;20.18;35.26;95562.25;10437587;28;3245;-51
2022/12/03 10:30:57;;;;;;;;;;;;;;;20.16;35.33;95548.56;10428040;28;2715;-51
2022/12/03 10:36:12;;;;;;;;;;;;;;;20.14;35.24;95535.69;10433605;28;3133;-54
2022/12/03 10:41:23;;;;;;;;;;;;;;;20.13;35.20;95539.38;10436511;28;3291;-54
2022/12/03 10:46:24;;;;;;;;;;;;;;;20.09;35.55;95533.09;10436255;28;2672;-55
2022/12/03 10:51:24;;;;;;;;;;;;;;;20.04;35.27;95527.09;10434911;28;3111;-50
2022/12/03 10:56:24;;;;;;;;;;;;;;;19.99;35.47;95521.88;10435083;28;3171;-52
2022/12/03 11:01:25;;;;;;;;;;;;;;;19.96;35.41;95517.16;10426832;28;3187;-52
2022/12/03 11:06:25;;;;;;;;;;;;;;;19.91;35.44;95514.56;10437191;28;3381;-51
2022/12/03 11:11:26;;;;;;;;;;;;;;;19.86;35.41;95507.50;10434696;28;3131;-55
2022/12/03 11:16:38;;;;;;;;;;;;;;;19.82;35.11;95516.22;10429565;28;3169;-54
2022/12/03 11:21:57;;;;;;;;;;;;;;;19.79;35.08;95511.50;10437235;28;3177;-49
2022/12/03 11:26:57;;;;;;;;;;;;;;;19.72;35.37;95513.66;10440501;28;3236;-50
2022/12/03 11:31:57;;;;;;;;;;;;;;;19.71;35.31;95519.97;10438638;28;3131;-48
2022/12/03 11:37:10;;;;;;;;;;;;;;;19.68;35.62;95523.91;10414428;28;3130;-54
2022/12/03 11:42:26;;;;;;;;;;;;;;;19.64;35.31;95520.25;10447009;28;3972;-52
2022/12/03 11:47:26;;;;;;;;;;;;;;;19.61;35.54;95515.56;10440134;28;3165;-53
2022/12/03 11:52:30;;;;;;;;;;;;;;;19.56;35.52;95518.22;10438379;28;2734;-54
2022/12/03 11:57:31;;;;;;;;;;;;;;;19.59;35.52;95511.63;10438651;28;3138;-51
2022/12/03 12:02:32;;;;;;;;;;;;;;;19.60;35.35;95508.72;10437193;28;3218;-49
2022/12/03 12:07:36;;;;;;;;;;;;;;;19.61;36.09;95512.16;10440189;28;3159;-53
2022/12/03 12:12:37;;;;;;;;;;;;;;;19.64;36.66;95503.72;10433712;28;3182;-52
2022/12/03 12:17:37;;;;;;;;;;;;;;;19.61;37.95;95499.00;10438697;28;3083;-50
2022/12/03 12:22:38;;;;;;;;;;;;;;;19.61;37.62;95489.28;10440274;28;2736;-51
2022/12/03 12:27:44;;;;;;;;;;;;;;;19.64;37.66;95485.31;10441220;28;3151;-48
2022/12/03 12:32:48;;;;;;;;;;;;;;;19.64;37.85;95482.69;10442490;28;3293;-48
2022/12/03 12:38:12;;;;;;;;;;;;;;;19.64;36.46;95478.19;10435680;28;3155;-52
2022/12/03 12:43:25;;;;;;;;;;;;;;;19.59;36.09;95467.72;10429873;28;3126;-47
2022/12/03 12:48:26;;;;;;;;;;;;;;;19.59;36.20;95469.56;10436057;28;3231;-50
2022/12/03 12:53:33;;;;;;;;;;;;;;;19.53;35.99;95455.69;10443126;28;3220;-51
2022/12/03 12:58:34;;;;;;;;;;;;;;;19.49;36.54;95454.66;10421073;28;3178;-51
2022/12/03 13:03:35;;;;;;;;;;;;;;;19.47;36.34;95439.13;10426010;28;3242;-51
2022/12/03 13:08:39;;;;;;;;;;;;;;;19.45;36.28;95440.50;10435511;28;3107;-51
2022/12/03 13:13:41;;;;;;;;;;;;;;;19.40;36.16;95441.31;10419218;28;3202;-49
2022/12/03 13:18:45;;;;;;;;;;;;;;;19.37;36.39;95443.69;10436649;28;3171;-47
2022/12/03 13:23:45;;;;;;;;;;;;;;;19.35;36.35;95424.78;10433572;28;2660;-48
2022/12/03 13:28:45;;;;;;;;;;;;;;;19.33;36.67;95430.28;10431013;28;3189;-52
2022/12/03 13:33:45;;;;;;;;;;;;;;;19.30;36.58;95422.94;10427315;28;3262;-52
2022/12/03 13:38:46;;;;;;;;;;;;;;;19.28;36.59;95414.53;10427561;28;2637;-50
2022/12/03 13:43:46;;;;;;;;;;;;;;;19.27;36.36;95415.59;10427263;28;3153;-55
2022/12/03 13:48:46;;;;;;;;;;;;;;;19.23;36.36;95419.81;10423540;28;3092;-55
2022/12/03 13:53:46;;;;;;;;;;;;;;;19.21;36.35;95415.88;10427737;28;3212;-50
2022/12/03 13:58:47;;;;;;;;;;;;;;;19.17;36.39;95425.38;10430082;28;3110;-52
2022/12/03 14:03:47;;;;;;;;;;;;;;;19.14;36.42;95412.81;10430682;28;3194;-55
2022/12/03 14:08:48;;;;;;;;;;;;;;;19.12;36.52;95422.78;10443940;28;2695;-55
2022/12/03 14:13:48;;;;;;;;;;;;;;;19.08;36.18;95417.28;10422041;28;3139;-54
2022/12/03 14:18:49;;;;;;;;;;;;;;;19.08;36.22;95411.25;10449899;28;3306;-53
2022/12/03 14:23:49;;;;;;;;;;;;;;;19.05;36.38;95412.59;10439077;28;2744;-53
2022/12/03 14:28:51;;;;;;;;;;;;;;;19.02;36.57;95413.09;10420411;28;3233;-52
2022/12/03 14:33:51;;;;;;;;;;;;;;;18.98;36.41;95409.47;10427457;28;3126;-53
2022/12/03 14:38:52;;;;;;;;;;;;;;;19.02;36.37;95418.38;10418989;28;3121;-56
2022/12/03 14:43:52;;;;;;;;;;;;;;;19.07;35.88;95410.47;10451253;28;2695;-53
2022/12/03 14:48:52;;;;;;;;;;;;;;;19.12;35.05;95418.34;10425039;28;2756;-53
2022/12/03 14:53:52;;;;;;;;;;;;;;;19.13;34.98;95413.84;10435539;28;3159;-53
2022/12/03 14:58:53;;;;;;;;;;;;;;;19.17;34.10;95415.66;10436473;28;3156;-53
2022/12/03 15:03:53;;;;;;;;;;;;;;;19.21;34.08;95414.06;10433400;28;3271;-51
2022/12/03 15:08:54;;;;;;;;;;;;;;;19.24;33.87;95408.28;10437005;28;3134;-53
2022/12/03 15:13:54;;;;;;;;;;;;;;;19.27;33.72;95399.03;10420627;28;3161;-53
2022/12/03 15:18:55;;;;;;;;;;;;;;;19.31;33.65;95395.59;10441212;28;3174;-53
2022/12/03 15:23:56;;;;;;;;;;;;;;;19.35;33.58;95396.66;10433708;28;2803;-54
2022/12/03 15:28:56;;;;;;;;;;;;;;;19.38;33.27;95414.50;10435027;28;3311;-53
2022/12/03 15:33:56;;;;;;;;;;;;;;;19.42;33.39;95406.84;10435303;28;3239;-53
2022/12/03 15:38:57;;;;;;;;;;;;;;;19.44;33.57;95402.91;10428909;28;3161;-53
2022/12/03 15:43:58;;;;;;;;;;;;;;;19.47;33.83;95396.31;10433620;28;2844;-52
2022/12/03 15:48:58;;;;;;;;;;;;;;;19.49;33.96;95387.06;10431344;28;2791;-53
2022/12/03 15:53:58;;;;;;;;;;;;;;;19.53;34.22;95394.41;10437413;28;3223;-54
2022/12/03 15:58:58;;;;;;;;;;;;;;;19.55;34.39;95381.78;10435467;28;3251;-49
2022/12/03 16:03:59;;;;;;;;;;;;;;;19.57;34.48;95390.97;10436282;28;3119;-54
2022/12/03 16:08:59;;;;;;;;;;;;;;;19.57;34.06;95398.06;10437057;28;3078;-54
2022/12/03 16:13:59;;;;;;;;;;;;;;;19.58;34.27;95395.16;10417407;28;3185;-52
2022/12/03 16:19:04;;;;;;;;;;;;;;;19.57;34.00;95403.31;10436972;28;3167;-52
2022/12/03 16:24:04;;;;;;;;;;;;;;;19.57;33.64;95396.22;10430411;28;3265;-52
2022/12/03 16:29:14;;;;;;;;;;;;;;;19.59;34.00;95393.31;10430905;28;3204;-51
2022/12/03 16:34:15;;;;;;;;;;;;;;;19.60;33.89;95389.66;10437229;28;3183;-52
2022/12/03 16:39:15;;;;;;;;;;;;;;;19.59;33.84;95391.47;10435934;28;3178;-53
2022/12/03 16:49:34;;;;;;;;;;;;;;;19.60;34.02;95397.53;10434452;28;3294;-54
2022/12/03 16:54:34;;;;;;;;;;;;;;;19.60;33.76;95392.28;10437469;28;3060;-53
2022/12/03 16:59:35;;;;;;;;;;;;;;;19.62;34.03;95384.91;10432631;28;2752;-54
2022/12/03 17:04:35;;;;;;;;;;;;;;;19.63;34.09;95399.59;10433477;28;3170;-53
2022/12/03 17:09:35;;;;;;;;;;;;;;;19.62;33.94;95392.78;10435718;28;3146;-55
2022/12/03 17:14:36;;;;;;;;;;;;;;;19.62;33.94;95396.16;10427664;28;3345;-52
2022/12/03 17:19:36;;;;;;;;;;;;;;;19.61;34.03;95372.78;10435630;28;3137;-53
2022/12/03 17:24:36;;;;;;;;;;;;;;;19.62;34.09;95372.50;10443937;28;3130;-53
2022/12/03 17:29:38;;;;;;;;;;;;;;;19.63;34.08;95360.94;10443281;28;3228;-54
2022/12/03 17:34:38;;;;;;;;;;;;;;;19.63;34.19;95353.06;10444869;28;3122;-53
2022/12/03 17:39:38;;;;;;;;;;;;;;;19.65;34.18;95356.19;10442408;28;3182;-53
2022/12/03 17:44:38;;;;;;;;;;;;;;;19.64;33.80;95361.75;10416977;28;2724;-53
2022/12/03 17:49:39;;;;;;;;;;;;;;;19.64;33.84;95369.63;10426769;28;3236;-52
2022/12/03 17:54:39;;;;;;;;;;;;;;;19.63;33.91;95365.41;10427206;28;3233;-52
2022/12/03 17:59:39;;;;;;;;;;;;;;;19.63;33.77;95358.31;10432354;28;2668;-51
2022/12/03 18:04:39;;;;;;;;;;;;;;;19.65;34.14;95358.81;10425988;28;3099;-51
2022/12/03 18:09:40;;;;;;;;;;;;;;;19.66;34.18;95362.25;10426143;28;3181;-51
2022/12/03 18:14:40;;;;;;;;;;;;;;;19.67;33.97;95361.16;10430912;28;3186;-53
2022/12/03 18:19:44;;;;;;;;;;;;;;;19.68;33.64;95346.97;10434000;28;3162;-55
2022/12/03 18:24:44;;;;;;;;;;;;;;;19.68;33.13;95352.22;10430786;28;3257;-53
2022/12/03 18:29:44;;;;;;;;;;;;;;;19.72;33.24;95348.00;10431487;28;3283;-55
2022/12/03 18:34:47;;;;;;;;;;;;;;;19.73;33.06;95349.53;10443796;28;3163;-54
2022/12/03 18:39:55;;;;;;;;;;;;;;;19.74;33.11;95341.38;10442459;28;3147;-54
2022/12/03 18:44:56;;;;;;;;;;;;;;;19.76;32.84;95335.84;10459464;28;3213;-54
2022/12/03 18:49:56;;;;;;;;;;;;;;;19.76;32.88;95333.22;10439101;28;3225;-55
2022/12/03 18:54:56;;;;;;;;;;;;;;;19.77;32.96;95340.81;10449064;28;3115;-54
2022/12/03 18:59:57;;;;;;;;;;;;;;;19.82;33.28;95343.41;10441708;28;2648;-54
2022/12/03 19:04:57;;;;;;;;;;;;;;;19.82;33.38;95348.69;10443334;28;3091;-53
2022/12/03 19:09:58;;;;;;;;;;;;;;;19.81;33.16;95348.94;10439468;28;3092;-51
2022/12/03 19:14:58;;;;;;;;;;;;;;;19.81;33.21;95352.34;10436981;28;3104;-52
2022/12/03 19:19:58;;;;;;;;;;;;;;;19.80;33.17;95350.81;10436273;28;3248;-54
2022/12/03 19:24:58;;;;;;;;;;;;;;;19.78;32.95;95346.88;10442619;28;3119;-52
2022/12/03 19:29:59;;;;;;;;;;;;;;;19.79;32.82;95343.16;10436790;28;3170;-53
2022/12/03 19:35:03;;;;;;;;;;;;;;;19.81;33.47;95344.47;10439197;28;3035;-55
2022/12/03 19:40:04;;;;;;;;;;;;;;;19.81;33.09;95338.41;10430719;28;3245;-54
2022/12/03 19:45:04;;;;;;;;;;;;;;;19.80;33.07;95335.03;10420761;28;2710;-52
2022/12/03 19:50:05;;;;;;;;;;;;;;;19.80;32.97;95327.13;10436985;28;3264;-55
2022/12/03 19:55:05;;;;;;;;;;;;;;;19.78;32.95;95333.72;10440568;28;3151;-52
2022/12/03 20:00:06;;;;;;;;;;;;;;;19.80;32.70;95342.13;10436747;28;3170;-54
2022/12/03 20:05:06;;;;;;;;;;;;;;;19.80;33.09;95342.91;10433515;28;3166;-53
2022/12/03 20:10:11;;;;;;;;;;;;;;;19.80;33.09;95342.91;10436989;28;3169;-55
2022/12/03 20:15:11;;;;;;;;;;;;;;;19.82;32.75;95342.63;10439291;28;3126;-54
2022/12/03 20:20:12;;;;;;;;;;;;;;;19.82;33.00;95326.84;10440518;28;3162;-53
2022/12/03 20:25:12;;;;;;;;;;;;;;;19.83;33.02;95313.41;10439521;28;3233;-53
2022/12/03 20:30:12;;;;;;;;;;;;;;;19.83;33.00;95323.13;10436954;28;3192;-51
2022/12/03 20:35:13;;;;;;;;;;;;;;;19.81;32.87;95304.22;10430155;28;3174;-54
2022/12/03 20:40:13;;;;;;;;;;;;;;;19.79;33.04;95290.56;10430045;28;3181;-51
2022/12/03 20:45:13;;;;;;;;;;;;;;;19.76;32.58;95307.72;10425231;28;3120;-51
2022/12/03 20:50:13;;;;;;;;;;;;;;;19.75;32.68;95294.81;10444069;28;3285;-54
2022/12/03 20:55:14;;;;;;;;;;;;;;;19.73;32.63;95295.09;10434817;28;3170;-54
2022/12/03 21:00:15;;;;;;;;;;;;;;;19.71;32.64;95299.06;10436258;28;3202;-50
2022/12/03 21:05:15;;;;;;;;;;;;;;;19.74;32.56;95293.28;10432259;28;2716;-54
2022/12/03 21:15:34;;;;;;;;;;;;;;;19.73;32.50;95270.66;10430696;28;2673;-53
2022/12/03 21:20:38;;;;;;;;;;;;;;;19.72;32.62;95269.84;10435862;28;3146;-50
2022/12/03 21:25:38;;;;;;;;;;;;;;;19.71;32.36;95264.88;10432630;28;3166;-54
2022/12/03 21:30:39;;;;;;;;;;;;;;;19.67;33.02;95264.66;10434262;28;3186;-55
2022/12/03 21:35:39;;;;;;;;;;;;;;;19.65;32.64;95272.06;10426975;28;3059;-53
2022/12/03 21:40:39;;;;;;;;;;;;;;;19.63;32.73;95255.78;10429588;28;2704;-55
2022/12/03 21:45:40;;;;;;;;;;;;;;;19.60;32.95;95260.81;10430916;28;3190;-54
2022/12/03 21:50:40;;;;;;;;;;;;;;;19.55;32.85;95261.66;10434566;28;3227;-54
2022/12/03 21:55:40;;;;;;;;;;;;;;;19.52;33.07;95264.03;10431397;28;3218;-53
2022/12/03 22:00:40;;;;;;;;;;;;;;;19.48;33.09;95263.81;10406896;28;3266;-53
2022/12/03 22:05:41;;;;;;;;;;;;;;;19.45;33.18;95270.41;10425468;28;3218;-55
2022/12/03 22:10:41;;;;;;;;;;;;;;;19.43;33.06;95272.50;10433089;28;3580;-55
2022/12/03 22:15:41;;;;;;;;;;;;;;;19.40;33.42;95269.66;10431956;28;3121;-52
2022/12/03 22:20:42;;;;;;;;;;;;;;;19.41;33.64;95269.38;10436434;28;3197;-55
2022/12/03 22:25:42;;;;;;;;;;;;;;;19.35;33.53;95270.50;10425174;28;3153;-53
2022/12/03 22:30:42;;;;;;;;;;;;;;;19.35;33.66;95269.72;10428939;28;3181;-52
2022/12/03 22:35:57;;;;;;;;;;;;;;;19.31;33.73;95253.69;10436707;28;3169;-55
2022/12/03 22:40:57;;;;;;;;;;;;;;;19.29;33.75;95255.81;10433282;28;2664;-55
2022/12/03 22:45:57;;;;;;;;;;;;;;;19.26;33.57;95250.31;10430204;28;3158;-53
2022/12/03 22:50:57;;;;;;;;;;;;;;;19.25;33.76;95238.22;10437999;28;3192;-55
2022/12/03 22:55:58;;;;;;;;;;;;;;;19.20;33.56;95246.97;10432928;28;3236;-54
2022/12/03 23:00:58;;;;;;;;;;;;;;;19.21;33.78;95234.59;10435905;28;3138;-53
2022/12/03 23:05:58;;;;;;;;;;;;;;;19.16;33.70;95232.81;10425014;28;3243;-50
2022/12/03 23:10:58;;;;;;;;;;;;;;;19.15;34.00;95238.31;10441465;28;3156;-54
2022/12/03 23:15:59;;;;;;;;;;;;;;;19.14;33.78;95223.63;10431649;28;2888;-55
2022/12/03 23:20:59;;;;;;;;;;;;;;;19.10;34.01;95220.75;10440514;28;3130;-55
2022/12/03 23:26:03;;;;;;;;;;;;;;;19.11;33.96;95211.84;10433486;28;3178;-55
2022/12/03 23:31:04;;;;;;;;;;;;;;;19.07;34.03;95208.19;10435325;28;2759;-55
2022/12/03 23:36:05;;;;;;;;;;;;;;;19.03;34.05;95209.81;10436942;28;3171;-54
2022/12/03 23:41:05;;;;;;;;;;;;;;;19.01;34.23;95201.41;10443877;28;3119;-50
2022/12/03 23:46:06;;;;;;;;;;;;;;;18.98;34.06;95196.69;10437973;28;3314;-53
2022/12/03 23:51:07;;;;;;;;;;;;;;;18.98;34.07;95195.94;10425010;28;3246;-53
2022/12/03 23:56:09;;;;;;;;;;;;;;;18.98;34.18;95191.44;10437397;28;3131;-54
